createdAt,value
2022-08-25T00:01:17.436Z,5.10
2022-08-25T00:04:44.874Z,5.60
2022-08-25T00:08:20.890Z,5.60
2022-08-25T00:11:49.529Z,5.50
2022-08-25T00:15:16.683Z,5.40
2022-08-25T00:18:46.135Z,6.10
2022-08-25T00:22:13.691Z,5.80
2022-08-25T00:25:41.241Z,6.80
2022-08-25T00:29:08.759Z,6.80
2022-08-25T00:32:36.373Z,7.50
2022-08-25T00:36:04.715Z,8.00
2022-08-25T00:39:35.232Z,7.40
2022-08-25T00:43:03.913Z,7.50
2022-08-25T00:46:35.815Z,8.00
2022-08-25T00:50:07.046Z,7.70
2022-08-25T00:53:36.323Z,7.40
2022-08-25T00:57:05.724Z,7.10
2022-08-25T01:00:38.844Z,7.30
2022-08-25T01:04:07.858Z,7.10
2022-08-25T01:07:35.824Z,7.20
2022-08-25T01:11:08.107Z,7.20
2022-08-25T01:14:36.575Z,6.70
2022-08-25T01:18:04.521Z,7.10
2022-08-25T01:21:39.889Z,7.30
2022-08-25T01:25:16.265Z,7.40
2022-08-25T01:29:04.951Z,6.90
2022-08-25T01:32:35.109Z,7.50
2022-08-25T01:36:03.400Z,7.20
2022-08-25T01:39:34.136Z,6.90
2022-08-25T01:43:18.638Z,8.10
2022-08-25T01:46:46.106Z,6.90
2022-08-25T01:50:13.703Z,7.10
2022-08-25T01:53:41.059Z,7.30
2022-08-25T01:57:09.456Z,6.80
2022-08-25T02:00:43.632Z,7.90
2022-08-25T02:04:13.049Z,7.40
2022-08-25T02:07:42.526Z,7.40
2022-08-25T02:11:14.286Z,7.60
2022-08-25T02:14:41.602Z,7.40
2022-08-25T02:18:09.182Z,8.20
2022-08-25T02:21:36.933Z,7.70
2022-08-25T02:25:03.878Z,10.60
2022-08-25T02:28:30.656Z,12.40
2022-08-25T02:31:59.142Z,11.90
2022-08-25T02:35:26.507Z,10.30
2022-08-25T02:38:54.080Z,8.60
2022-08-25T02:42:22.273Z,8.10
2022-08-25T02:45:49.587Z,8.10
2022-08-25T02:49:17.157Z,6.80
2022-08-25T02:52:44.416Z,7.20
2022-08-25T02:56:12.587Z,6.50
2022-08-25T02:59:40.511Z,5.90
2022-08-25T03:03:08.172Z,6.10
2022-08-25T03:06:35.935Z,6.20
2022-08-25T03:10:06.070Z,6.10
2022-08-25T03:13:33.724Z,6.60
2022-08-25T03:17:01.209Z,6.20
2022-08-25T03:20:29.979Z,6.80
2022-08-25T03:23:57.125Z,7.10
2022-08-25T03:27:25.033Z,6.30
2022-08-25T03:30:53.466Z,6.90
2022-08-25T03:34:24.056Z,6.00
2022-08-25T03:37:51.397Z,6.70
2022-08-25T03:41:22.909Z,7.60
2022-08-25T03:44:50.647Z,6.70
2022-08-25T03:48:18.722Z,7.10
2022-08-25T03:51:48.861Z,8.10
2022-08-25T03:55:17.586Z,7.70
2022-08-25T03:58:45.067Z,7.80
2022-08-25T04:02:12.857Z,7.70
2022-08-25T04:05:41.248Z,7.90
2022-08-25T04:09:10.068Z,8.20
2022-08-25T04:12:38.870Z,8.30
2022-08-25T04:16:12.239Z,7.80
2022-08-25T04:19:40.854Z,8.70
2022-08-25T04:23:07.766Z,8.70
2022-08-25T04:26:38.297Z,8.10
2022-08-25T04:30:05.818Z,8.00
2022-08-25T04:33:33.578Z,8.40
2022-08-25T04:37:00.741Z,8.70
2022-08-25T04:40:29.381Z,7.60
2022-08-25T04:43:58.788Z,7.80
2022-08-25T04:47:26.432Z,8.30
2022-08-25T04:50:58.383Z,8.70
2022-08-25T04:54:25.959Z,9.50
2022-08-25T04:57:57.743Z,9.40
2022-08-25T05:01:27.933Z,9.00
2022-08-25T05:04:56.448Z,9.70
2022-08-25T05:08:23.621Z,9.10
2022-08-25T05:11:50.995Z,10.20
2022-08-25T05:15:36.333Z,9.30
2022-08-25T05:19:06.153Z,9.80
2022-08-25T05:22:36.280Z,8.40
2022-08-25T05:26:09.008Z,9.20
2022-08-25T05:29:36.148Z,9.70
2022-08-25T05:33:06.563Z,10.50
2022-08-25T05:36:34.444Z,9.40
2022-08-25T05:40:02.261Z,9.20
2022-08-25T05:43:30.070Z,9.00
2022-08-25T05:46:57.176Z,8.90
2022-08-25T05:50:25.636Z,7.90
2022-08-25T05:53:53.743Z,7.40
2022-08-25T05:57:24.463Z,7.10
2022-08-25T06:00:52.352Z,6.80
2022-08-25T06:04:20.606Z,6.00
2022-08-25T06:07:48.807Z,6.10
2022-08-25T06:11:16.746Z,6.20
2022-08-25T06:14:44.345Z,6.20
2022-08-25T06:18:11.506Z,5.30
2022-08-25T06:21:40.795Z,5.00
2022-08-25T06:25:09.721Z,5.90
2022-08-25T06:28:40.349Z,5.90
2022-08-25T06:32:08.228Z,4.40
2022-08-25T06:35:37.317Z,4.80
2022-08-25T06:39:05.320Z,5.00
2022-08-25T06:42:32.898Z,4.70
2022-08-25T06:46:09.509Z,5.20
2022-08-25T06:49:37.113Z,5.00
2022-08-25T06:53:04.471Z,5.50
2022-08-25T06:56:31.973Z,5.00
2022-08-25T07:00:00.870Z,5.50
2022-08-25T07:03:28.613Z,5.60
2022-08-25T07:06:58.917Z,5.10
2022-08-25T07:10:28.770Z,5.50
2022-08-25T07:14:00.434Z,5.20
2022-08-25T07:17:29.133Z,5.50
2022-08-25T07:20:57.153Z,4.80
2022-08-25T07:24:25.267Z,5.40
2022-08-25T07:27:59.037Z,5.00
2022-08-25T07:31:29.519Z,4.80
2022-08-25T07:35:15.328Z,5.60
2022-08-25T07:38:45.333Z,5.30
2022-08-25T07:42:15.667Z,5.20
2022-08-25T07:45:48.516Z,4.30
2022-08-25T07:49:17.277Z,5.60
2022-08-25T07:52:44.709Z,5.10
2022-08-25T07:56:21.912Z,5.60
2022-08-25T07:59:50.758Z,6.60
2022-08-25T08:03:44.744Z,6.20
2022-08-25T08:07:14.610Z,7.00
2022-08-25T08:14:32.696Z,5.80
2022-08-25T08:18:00.608Z,5.00
2022-08-25T08:21:33.394Z,4.30
2022-08-25T08:24:59.872Z,5.10
2022-08-25T08:28:28.494Z,5.10
2022-08-25T08:32:00.357Z,4.50
2022-08-25T08:35:31.149Z,4.70
2022-08-25T08:39:05.295Z,4.00
2022-08-25T08:42:53.251Z,4.00
2022-08-25T08:46:25.995Z,3.50
2022-08-25T08:50:04.078Z,3.70
2022-08-25T08:53:42.413Z,4.80
2022-08-25T08:57:15.706Z,3.90
2022-08-25T09:00:52.298Z,4.20
2022-08-25T09:04:28.091Z,4.20
2022-08-25T09:07:59.212Z,4.70
2022-08-25T09:11:42.727Z,4.60
2022-08-25T09:15:57.425Z,5.10
2022-08-25T09:19:45.667Z,4.30
2022-08-25T09:23:26.616Z,4.30
2022-08-25T09:27:08.216Z,4.60
2022-08-25T09:30:47.364Z,4.20
2022-08-25T09:34:23.740Z,3.90
2022-08-25T09:38:03.600Z,3.90
2022-08-25T09:41:47.989Z,3.50
2022-08-25T09:45:31.966Z,5.00
2022-08-25T09:49:15.058Z,3.80
2022-08-25T09:52:44.723Z,4.00
2022-08-25T09:56:14.101Z,3.80
2022-08-25T09:59:55.712Z,4.50
2022-08-25T10:03:26.293Z,4.30
2022-08-25T10:06:57.358Z,4.10
2022-08-25T10:10:34.807Z,4.50
2022-08-25T10:14:07.462Z,4.40
2022-08-25T10:17:41.534Z,4.20
2022-08-25T10:21:12.702Z,5.10
2022-08-25T10:24:44.966Z,5.10
2022-08-25T10:28:26.962Z,5.70
2022-08-25T10:32:10.231Z,5.80
2022-08-25T10:35:56.860Z,5.00
2022-08-25T10:39:40.459Z,4.90
2022-08-25T10:43:19.895Z,5.00
2022-08-25T10:47:02.109Z,4.50
2022-08-25T10:50:38.731Z,4.20
2022-08-25T10:54:28.788Z,4.30
2022-08-25T10:58:09.452Z,4.70
2022-08-25T11:01:58.705Z,4.90
2022-08-25T11:05:32.000Z,4.10
2022-08-25T11:09:02.434Z,3.80
2022-08-25T11:12:37.648Z,5.00
2022-08-25T11:16:19.113Z,4.60
2022-08-25T11:19:50.866Z,4.20
2022-08-25T11:23:24.372Z,4.50
2022-08-25T11:26:57.981Z,4.50
2022-08-25T11:30:25.877Z,4.40
2022-08-25T11:33:55.311Z,4.50
2022-08-25T11:37:29.552Z,4.30
2022-08-25T11:41:11.407Z,4.40
2022-08-25T11:44:55.111Z,5.10
2022-08-25T11:48:30.695Z,4.30
2022-08-25T11:52:03.096Z,3.60
2022-08-25T11:55:47.393Z,3.90
2022-08-25T11:59:37.018Z,3.90
2022-08-25T12:03:53.811Z,3.80
2022-08-25T12:07:28.128Z,3.80
2022-08-25T12:11:12.101Z,4.40
2022-08-25T12:14:49.742Z,3.50
2022-08-25T12:18:45.921Z,3.60
2022-08-25T12:22:55.974Z,3.40
2022-08-25T12:26:49.791Z,4.00
2022-08-25T12:30:28.669Z,3.80
2022-08-25T12:34:12.500Z,4.20
2022-08-25T12:38:11.397Z,3.60
2022-08-25T12:42:04.106Z,3.40
2022-08-25T12:45:42.570Z,4.60
2022-08-25T12:49:31.727Z,3.90
2022-08-25T12:53:11.098Z,3.90
2022-08-25T12:56:45.371Z,3.90
2022-08-25T13:00:23.845Z,4.30
2022-08-25T13:04:28.287Z,4.40
2022-08-25T13:08:33.615Z,4.70
2022-08-25T13:12:30.822Z,3.80
2022-08-25T13:16:18.474Z,4.00
2022-08-25T13:19:51.262Z,3.60
2022-08-25T13:23:25.579Z,3.90
2022-08-25T13:27:01.037Z,3.90
2022-08-25T13:30:37.560Z,4.10
2022-08-25T13:34:07.388Z,4.10
2022-08-25T13:37:38.778Z,4.40
2022-08-25T13:41:09.767Z,3.90
2022-08-25T13:44:40.737Z,4.50
2022-08-25T13:48:37.183Z,4.10
2022-08-25T13:52:07.337Z,4.40
2022-08-25T13:55:50.407Z,4.40
2022-08-25T13:59:27.121Z,4.30
2022-08-25T14:03:00.426Z,4.30
2022-08-25T14:06:37.199Z,4.70
2022-08-25T14:10:10.204Z,4.80
2022-08-25T14:13:43.651Z,4.90
2022-08-25T14:17:28.749Z,4.90
2022-08-25T14:21:10.741Z,5.00
2022-08-25T14:24:41.788Z,4.50
2022-08-25T14:28:20.365Z,4.90
2022-08-25T14:31:50.440Z,5.00
2022-08-25T14:35:31.457Z,5.20
2022-08-25T14:39:06.099Z,4.90
2022-08-25T14:42:36.938Z,5.60
2022-08-25T14:46:20.280Z,5.40
2022-08-25T14:49:54.189Z,5.60
2022-08-25T14:53:21.980Z,5.50
2022-08-25T14:56:50.062Z,6.10
2022-08-25T15:00:21.037Z,5.50
2022-08-25T15:03:57.747Z,5.40
2022-08-25T15:07:42.894Z,6.10
2022-08-25T15:11:10.426Z,5.40
2022-08-25T15:14:39.234Z,5.60
2022-08-25T15:18:08.511Z,5.50
2022-08-25T15:21:38.354Z,5.80
2022-08-25T15:25:09.947Z,5.90
2022-08-25T15:28:44.981Z,6.10
2022-08-25T15:32:12.697Z,5.90
2022-08-25T15:35:45.706Z,5.40
2022-08-25T15:39:14.816Z,5.10
2022-08-25T15:42:48.599Z,5.60
2022-08-25T15:46:24.379Z,5.90
2022-08-25T15:49:53.870Z,5.50
2022-08-25T15:53:26.371Z,6.10
2022-08-25T15:56:55.255Z,5.50
2022-08-25T16:00:25.002Z,4.90
2022-08-25T16:03:51.956Z,6.50
2022-08-25T16:07:19.374Z,5.60
2022-08-25T16:10:47.709Z,5.50
2022-08-25T16:14:17.422Z,5.80
2022-08-25T16:17:50.608Z,5.90
2022-08-25T16:21:21.862Z,5.70
2022-08-25T16:24:58.454Z,6.30
2022-08-25T16:28:25.885Z,6.00
2022-08-25T16:31:55.823Z,5.20
2022-08-25T16:35:26.984Z,5.70
2022-08-25T16:39:04.127Z,5.60
2022-08-25T16:42:55.404Z,6.40
2022-08-25T16:46:26.270Z,5.70
2022-08-25T16:50:05.247Z,5.10
2022-08-25T16:53:50.774Z,6.00
2022-08-25T16:57:18.810Z,5.70
2022-08-25T17:00:45.931Z,6.00
2022-08-25T17:04:15.412Z,5.80
2022-08-25T17:08:05.426Z,5.80
2022-08-25T17:11:36.540Z,5.90
2022-08-25T17:15:06.344Z,5.30
2022-08-25T17:18:34.566Z,5.20
2022-08-25T17:22:03.964Z,5.70
2022-08-25T17:29:03.458Z,6.00
2022-08-25T17:32:30.815Z,6.10
2022-08-25T17:35:59.214Z,6.30
2022-08-25T17:39:31.512Z,6.40
2022-08-25T17:43:02.960Z,6.60
2022-08-25T17:46:31.252Z,6.40
2022-08-25T17:50:02.009Z,6.70
2022-08-25T17:53:35.149Z,5.90
2022-08-25T17:57:02.487Z,5.90
2022-08-25T18:00:43.663Z,7.20
2022-08-25T18:04:27.272Z,6.40
2022-08-25T18:08:10.554Z,6.90
2022-08-25T18:11:46.238Z,6.10
2022-08-25T18:15:15.961Z,7.20
2022-08-25T18:18:51.460Z,7.10
2022-08-25T18:26:00.770Z,8.60
2022-08-25T18:29:31.863Z,8.70
2022-08-25T18:33:01.156Z,8.70
2022-08-25T18:36:32.582Z,8.70
2022-08-25T18:40:26.919Z,8.80
2022-08-25T18:43:54.224Z,9.00
2022-08-25T18:47:22.043Z,9.10
2022-08-25T18:50:51.905Z,8.60
2022-08-25T18:54:23.745Z,8.70
2022-08-25T19:01:18.330Z,8.80
2022-08-25T19:04:46.190Z,9.60
2022-08-25T19:08:18.512Z,9.20
2022-08-25T19:11:53.189Z,9.70
2022-08-25T19:18:52.190Z,8.30
2022-08-25T19:22:40.254Z,8.60
2022-08-25T19:26:17.073Z,9.70
2022-08-25T19:29:46.150Z,8.80
2022-08-25T19:33:42.521Z,8.80
2022-08-25T19:37:08.105Z,9.20
2022-08-25T19:40:38.016Z,8.60
2022-08-25T19:44:06.404Z,9.10
2022-08-25T19:47:37.729Z,9.00
2022-08-25T19:51:05.611Z,9.00
2022-08-25T19:54:39.248Z,9.40
2022-08-25T19:58:14.305Z,9.30
2022-08-25T20:01:50.673Z,8.60
2022-08-25T20:05:23.482Z,9.10
2022-08-25T20:08:59.256Z,9.10
2022-08-25T20:12:29.962Z,9.10
2022-08-25T20:15:57.742Z,10.80
2022-08-25T20:19:27.035Z,9.90
2022-08-25T20:23:16.517Z,9.30
2022-08-25T20:26:47.292Z,10.20
2022-08-25T20:30:18.722Z,10.90
2022-08-25T20:33:50.501Z,9.90
2022-08-25T20:37:20.604Z,10.00
2022-08-25T20:40:48.830Z,9.60
2022-08-25T20:44:16.569Z,10.00
2022-08-25T20:47:45.116Z,9.70
2022-08-25T20:51:14.483Z,10.10
2022-08-25T20:54:50.363Z,10.40
2022-08-25T20:58:18.602Z,11.00
2022-08-25T21:01:50.642Z,11.70
2022-08-25T21:05:19.734Z,10.40
2022-08-25T21:08:48.268Z,10.20
2022-08-25T21:12:15.895Z,10.50
2022-08-25T21:15:48.749Z,10.80
2022-08-25T21:19:26.304Z,10.80
2022-08-25T21:22:54.592Z,11.20
2022-08-25T21:26:24.076Z,10.80
2022-08-25T21:29:54.842Z,11.00
2022-08-25T21:33:26.301Z,10.70
2022-08-25T21:40:31.827Z,10.30
2022-08-25T21:43:59.866Z,11.30
2022-08-25T21:47:26.850Z,10.60
2022-08-25T21:51:06.786Z,11.90
2022-08-25T21:54:36.448Z,10.00
2022-08-25T21:58:09.194Z,10.30
2022-08-25T22:01:38.066Z,10.50
2022-08-25T22:05:09.401Z,9.40
2022-08-25T22:08:40.190Z,10.30
2022-08-25T22:12:08.892Z,10.00
2022-08-25T22:15:39.122Z,10.00
2022-08-25T22:19:10.262Z,10.90
2022-08-25T22:22:39.815Z,9.80
2022-08-25T22:26:07.947Z,10.40
2022-08-25T22:29:36.039Z,10.80
2022-08-25T22:33:03.861Z,10.50
2022-08-25T22:36:33.733Z,10.80
2022-08-25T22:40:03.951Z,10.60
2022-08-25T22:43:34.558Z,10.80
2022-08-25T22:47:01.676Z,9.80
2022-08-25T22:50:29.213Z,10.90
2022-08-25T22:54:01.961Z,10.90
2022-08-25T22:57:31.896Z,11.50
2022-08-25T23:00:59.318Z,12.40
2022-08-25T23:04:27.446Z,12.10
2022-08-25T23:07:54.484Z,11.30
2022-08-25T23:11:26.675Z,13.70
2022-08-25T23:14:58.163Z,13.30
2022-08-25T23:18:24.914Z,13.30
2022-08-25T23:22:13.782Z,14.00
2022-08-25T23:25:45.243Z,14.50
2022-08-25T23:29:18.082Z,15.30
2022-08-25T23:32:46.197Z,14.90
2022-08-25T23:36:17.521Z,14.00
2022-08-25T23:39:46.157Z,15.40
2022-08-25T23:43:19.270Z,14.20
2022-08-25T23:46:47.202Z,15.70
2022-08-25T23:50:14.693Z,15.20
2022-08-25T23:53:41.752Z,16.10
2022-08-25T23:57:09.274Z,15.60
